Etusivu
METAR-TAF:

METAR-TAF

Lentoasemat :

Earlton, Ontario, Kanada

Leveyspiiri: 47-42N, Pituuspiiri: 079-51W, korkeus merenpinnasta: 243 m

Tämänhetkinen sää

Tämä raportti tehtiin 58 minuuttia sitten, kello 06.00 UTC
Tuuli 6 kn lännestä
Lämpötila 1°C
Kosteus 75%
Ilmanpaine 1015 hPa
Näkyvyys: 14.5 km
Pilvistä 14000 ft:n korkeudessa

METAR: CYXR 020600Z AUTO 28006KT 9SM OVC140 01/M03 A2997 RMK SLP161

Aika: 02:58 (06:58 UTC)

Sääennuste

Tämä raportti tehtiin 13 tuntia ja 14 minuuttia sitten, kello 17.44 UTC
Ennuste voimassa 01. päivästä klo 18 UTC - 01. päivään klo 24 UTC
Tuuli 5 kn pohjoisen/luoteesta
Näkyvyys: 10 km
Hajanaisia pilviä 3000 ft:n korkeudessa
Ajoittain
01. päivästä klo 20 UTC - 01. päivään klo 24 UTC
Näkyvyys: 10 km
Hajonneita pilviä 3000 ft:n korkeudessa
heikkoja vesikuuroja

TAF: CYXR 011744Z 0118/0124 33005KT P6SM SCT030 TEMPO 0120/0124 P6SM -SHRA BKN030 RMK FCST BASED ON AUTO OBS. NXT FCST WILL BE ISSUED AT 021145Z

Säähavainnot ja -ennusteet yli 4000 lentoasemalta (METAR- ja TAF-raportit).

Käytössä olevat sääasemat on merkitty karttaan keltaisilla ja punaisilla pisteillä.

Aseta hiiri pisteen päälle nähdäksesi sääaseman nimen.

Klikkaa sitten nähdäksesi säähavainnot ja -ennusteet.

Kartan vaihtaminen: klikkaa mustalla rastilla varustettuja vihreitä pisteitä, niin voit zoomata sisään; viivalla varustettua vihreää pistettä, niin voit zoomata ulos tai vihreitä nuolia, niin pääset viereisille kartoille.


METAR-TAF: